sensor_id;sensor_type;location;lat;lon;timestamp;temperature;humidity
16517;DHT22;8371;52.272;9.746;2023-12-28T00:00:58;10.60;87.40
16517;DHT22;8371;52.272;9.746;2023-12-28T00:03:24;10.70;87.30
16517;DHT22;8371;52.272;9.746;2023-12-28T00:05:50;10.50;87.30
16517;DHT22;8371;52.272;9.746;2023-12-28T00:08:15;10.80;87.50
16517;DHT22;8371;52.272;9.746;2023-12-28T00:10:41;10.80;87.50
16517;DHT22;8371;52.272;9.746;2023-12-28T00:13:07;10.80;87.00
16517;DHT22;8371;52.272;9.746;2023-12-28T00:15:32;10.80;87.10
16517;DHT22;8371;52.272;9.746;2023-12-28T00:17:58;10.80;87.10
16517;DHT22;8371;52.272;9.746;2023-12-28T00:20:24;10.90;87.00
16517;DHT22;8371;52.272;9.746;2023-12-28T00:22:49;10.90;86.80
16517;DHT22;8371;52.272;9.746;2023-12-28T00:25:15;10.90;86.60
16517;DHT22;8371;52.272;9.746;2023-12-28T00:27:41;10.90;86.70
16517;DHT22;8371;52.272;9.746;2023-12-28T00:30:07;11.00;86.70
16517;DHT22;8371;52.272;9.746;2023-12-28T00:32:32;11.00;86.70
16517;DHT22;8371;52.272;9.746;2023-12-28T00:34:58;11.00;86.60
16517;DHT22;8371;52.272;9.746;2023-12-28T00:37:24;11.00;86.70
16517;DHT22;8371;52.272;9.746;2023-12-28T00:39:50;11.10;86.60
16517;DHT22;8371;52.272;9.746;2023-12-28T00:42:22;11.10;86.80
16517;DHT22;8371;52.272;9.746;2023-12-28T00:44:47;11.10;86.90
16517;DHT22;8371;52.272;9.746;2023-12-28T00:47:13;11.20;86.80
16517;DHT22;8371;52.272;9.746;2023-12-28T00:49:39;11.20;86.70
16517;DHT22;8371;52.272;9.746;2023-12-28T00:52:05;11.30;86.90
16517;DHT22;8371;52.272;9.746;2023-12-28T00:54:30;11.30;86.90
16517;DHT22;8371;52.272;9.746;2023-12-28T00:56:56;11.30;86.90
16517;DHT22;8371;52.272;9.746;2023-12-28T00:59:22;11.40;86.90
16517;DHT22;8371;52.272;9.746;2023-12-28T01:01:47;11.40;86.90
16517;DHT22;8371;52.272;9.746;2023-12-28T01:04:13;11.40;86.60
16517;DHT22;8371;52.272;9.746;2023-12-28T01:06:39;11.40;86.50
16517;DHT22;8371;52.272;9.746;2023-12-28T01:09:06;11.40;86.40
16517;DHT22;8371;52.272;9.746;2023-12-28T01:11:32;11.40;86.70
16517;DHT22;8371;52.272;9.746;2023-12-28T01:13:57;11.30;86.70
16517;DHT22;8371;52.272;9.746;2023-12-28T01:16:24;11.30;86.90
16517;DHT22;8371;52.272;9.746;2023-12-28T01:18:50;11.30;87.00
16517;DHT22;8371;52.272;9.746;2023-12-28T01:21:15;11.30;87.10
16517;DHT22;8371;52.272;9.746;2023-12-28T01:23:41;11.30;87.20
16517;DHT22;8371;52.272;9.746;2023-12-28T01:26:12;11.30;87.30
16517;DHT22;8371;52.272;9.746;2023-12-28T01:28:38;11.30;87.50
16517;DHT22;8371;52.272;9.746;2023-12-28T01:31:04;11.20;87.50
16517;DHT22;8371;52.272;9.746;2023-12-28T01:33:30;11.20;87.60
16517;DHT22;8371;52.272;9.746;2023-12-28T01:35:55;11.20;87.80
16517;DHT22;8371;52.272;9.746;2023-12-28T01:38:21;11.20;88.00
16517;DHT22;8371;52.272;9.746;2023-12-28T01:40:47;11.10;87.90
16517;DHT22;8371;52.272;9.746;2023-12-28T01:43:12;11.10;88.00
16517;DHT22;8371;52.272;9.746;2023-12-28T01:45:38;11.10;88.20
16517;DHT22;8371;52.272;9.746;2023-12-28T01:48:04;11.10;88.30
16517;DHT22;8371;52.272;9.746;2023-12-28T01:50:31;11.10;88.50
16517;DHT22;8371;52.272;9.746;2023-12-28T01:52:58;11.10;88.60
16517;DHT22;8371;52.272;9.746;2023-12-28T01:55:26;11.10;88.70
16517;DHT22;8371;52.272;9.746;2023-12-28T01:57:53;11.10;88.70
16517;DHT22;8371;52.272;9.746;2023-12-28T02:00:21;11.10;88.80
16517;DHT22;8371;52.272;9.746;2023-12-28T02:02:47;11.10;88.90
16517;DHT22;8371;52.272;9.746;2023-12-28T02:05:14;11.10;88.90
16517;DHT22;8371;52.272;9.746;2023-12-28T02:07:40;11.20;89.10
16517;DHT22;8371;52.272;9.746;2023-12-28T02:10:07;11.20;89.20
16517;DHT22;8371;52.272;9.746;2023-12-28T02:12:33;11.20;89.10
16517;DHT22;8371;52.272;9.746;2023-12-28T02:14:59;11.20;89.10
16517;DHT22;8371;52.272;9.746;2023-12-28T02:17:35;11.20;89.10
16517;DHT22;8371;52.272;9.746;2023-12-28T02:20:01;11.20;89.20
16517;DHT22;8371;52.272;9.746;2023-12-28T02:22:29;11.20;89.10
16517;DHT22;8371;52.272;9.746;2023-12-28T02:25:05;11.20;89.20
16517;DHT22;8371;52.272;9.746;2023-12-28T02:27:36;11.30;89.20
16517;DHT22;8371;52.272;9.746;2023-12-28T02:30:04;11.30;89.20
16517;DHT22;8371;52.272;9.746;2023-12-28T02:32:39;11.30;89.30
16517;DHT22;8371;52.272;9.746;2023-12-28T02:35:14;11.30;89.30
16517;DHT22;8371;52.272;9.746;2023-12-28T02:37:38;11.30;89.30
16517;DHT22;8371;52.272;9.746;2023-12-28T02:40:05;11.40;89.30
16517;DHT22;8371;52.272;9.746;2023-12-28T02:42:31;11.40;89.40
16517;DHT22;8371;52.272;9.746;2023-12-28T02:44:57;11.30;89.30
16517;DHT22;8371;52.272;9.746;2023-12-28T02:47:23;11.40;89.20
16517;DHT22;8371;52.272;9.746;2023-12-28T02:49:48;11.50;90.00
16517;DHT22;8371;52.272;9.746;2023-12-28T02:52:14;11.40;89.10
16517;DHT22;8371;52.272;9.746;2023-12-28T02:54:40;11.40;89.00
16517;DHT22;8371;52.272;9.746;2023-12-28T02:57:06;11.40;89.10
16517;DHT22;8371;52.272;9.746;2023-12-28T02:59:31;11.40;89.00
16517;DHT22;8371;52.272;9.746;2023-12-28T03:01:57;11.40;89.10
16517;DHT22;8371;52.272;9.746;2023-12-28T03:04:22;11.40;89.20
16517;DHT22;8371;52.272;9.746;2023-12-28T03:06:48;11.40;89.20
16517;DHT22;8371;52.272;9.746;2023-12-28T03:09:14;11.40;89.20
16517;DHT22;8371;52.272;9.746;2023-12-28T03:11:39;11.40;89.20
16517;DHT22;8371;52.272;9.746;2023-12-28T03:14:05;11.40;89.30
16517;DHT22;8371;52.272;9.746;2023-12-28T03:16:31;11.40;89.20
16517;DHT22;8371;52.272;9.746;2023-12-28T03:18:56;11.40;89.40
16517;DHT22;8371;52.272;9.746;2023-12-28T03:21:22;11.50;89.50
16517;DHT22;8371;52.272;9.746;2023-12-28T03:23:48;11.50;89.50
16517;DHT22;8371;52.272;9.746;2023-12-28T03:26:13;11.50;89.50
16517;DHT22;8371;52.272;9.746;2023-12-28T03:28:40;11.50;89.60
16517;DHT22;8371;52.272;9.746;2023-12-28T03:31:05;11.50;89.50
16517;DHT22;8371;52.272;9.746;2023-12-28T03:33:31;11.60;89.60
16517;DHT22;8371;52.272;9.746;2023-12-28T03:35:57;11.60;89.70
16517;DHT22;8371;52.272;9.746;2023-12-28T03:38:22;11.60;89.50
16517;DHT22;8371;52.272;9.746;2023-12-28T03:40:49;11.60;89.50
16517;DHT22;8371;52.272;9.746;2023-12-28T03:43:15;11.70;89.70
16517;DHT22;8371;52.272;9.746;2023-12-28T03:45:41;11.70;89.70
16517;DHT22;8371;52.272;9.746;2023-12-28T03:48:06;11.70;89.70
16517;DHT22;8371;52.272;9.746;2023-12-28T03:50:32;11.70;89.60
16517;DHT22;8371;52.272;9.746;2023-12-28T03:52:59;11.80;89.70
16517;DHT22;8371;52.272;9.746;2023-12-28T03:55:25;11.80;89.50
16517;DHT22;8371;52.272;9.746;2023-12-28T03:57:50;11.80;89.50
16517;DHT22;8371;52.272;9.746;2023-12-28T04:00:17;11.80;89.50
16517;DHT22;8371;52.272;9.746;2023-12-28T04:02:42;11.80;89.40
16517;DHT22;8371;52.272;9.746;2023-12-28T04:05:08;11.90;89.50
16517;DHT22;8371;52.272;9.746;2023-12-28T04:07:34;11.90;89.40
16517;DHT22;8371;52.272;9.746;2023-12-28T04:09:59;11.90;89.20
16517;DHT22;8371;52.272;9.746;2023-12-28T04:12:25;12.00;89.40
16517;DHT22;8371;52.272;9.746;2023-12-28T04:14:51;12.00;89.20
16517;DHT22;8371;52.272;9.746;2023-12-28T04:17:17;12.00;89.20
16517;DHT22;8371;52.272;9.746;2023-12-28T04:19:42;12.00;89.20
16517;DHT22;8371;52.272;9.746;2023-12-28T04:22:08;12.00;89.00
16517;DHT22;8371;52.272;9.746;2023-12-28T04:24:34;12.00;89.00
16517;DHT22;8371;52.272;9.746;2023-12-28T04:26:59;12.00;89.00
16517;DHT22;8371;52.272;9.746;2023-12-28T04:29:25;12.00;88.90
16517;DHT22;8371;52.272;9.746;2023-12-28T04:31:51;12.00;88.90
16517;DHT22;8371;52.272;9.746;2023-12-28T04:34:16;12.10;89.00
16517;DHT22;8371;52.272;9.746;2023-12-28T04:36:42;12.10;88.90
16517;DHT22;8371;52.272;9.746;2023-12-28T04:39:09;12.10;88.80
16517;DHT22;8371;52.272;9.746;2023-12-28T04:41:34;12.10;88.90
16517;DHT22;8371;52.272;9.746;2023-12-28T04:44:00;12.10;88.70
16517;DHT22;8371;52.272;9.746;2023-12-28T04:46:26;12.10;88.50
16517;DHT22;8371;52.272;9.746;2023-12-28T04:48:51;12.10;88.60
16517;DHT22;8371;52.272;9.746;2023-12-28T04:51:17;12.10;88.60
16517;DHT22;8371;52.272;9.746;2023-12-28T04:53:43;12.10;88.50
16517;DHT22;8371;52.272;9.746;2023-12-28T04:56:08;12.20;88.70
16517;DHT22;8371;52.272;9.746;2023-12-28T04:58:34;12.20;88.60
16517;DHT22;8371;52.272;9.746;2023-12-28T05:01:01;12.30;88.60
16517;DHT22;8371;52.272;9.746;2023-12-28T05:03:27;12.30;88.60
16517;DHT22;8371;52.272;9.746;2023-12-28T05:05:52;12.30;88.40
16517;DHT22;8371;52.272;9.746;2023-12-28T05:08:18;12.20;88.30
16517;DHT22;8371;52.272;9.746;2023-12-28T05:10:44;12.30;88.20
16517;DHT22;8371;52.272;9.746;2023-12-28T05:13:09;12.30;88.20
16517;DHT22;8371;52.272;9.746;2023-12-28T05:15:35;12.30;88.10
16517;DHT22;8371;52.272;9.746;2023-12-28T05:18:01;12.30;88.10
16517;DHT22;8371;52.272;9.746;2023-12-28T05:20:26;12.30;88.00
16517;DHT22;8371;52.272;9.746;2023-12-28T05:22:52;12.30;88.00
16517;DHT22;8371;52.272;9.746;2023-12-28T05:25:18;12.30;88.00
16517;DHT22;8371;52.272;9.746;2023-12-28T05:27:43;12.30;88.00
16517;DHT22;8371;52.272;9.746;2023-12-28T05:30:09;12.40;88.10
16517;DHT22;8371;52.272;9.746;2023-12-28T05:32:36;12.30;87.80
16517;DHT22;8371;52.272;9.746;2023-12-28T05:35:02;12.30;87.70
16517;DHT22;8371;52.272;9.746;2023-12-28T05:37:29;12.30;87.70
16517;DHT22;8371;52.272;9.746;2023-12-28T05:39:55;12.30;87.70
16517;DHT22;8371;52.272;9.746;2023-12-28T05:42:20;12.30;87.70
16517;DHT22;8371;52.272;9.746;2023-12-28T05:44:46;12.30;87.70
16517;DHT22;8371;52.272;9.746;2023-12-28T05:47:12;12.20;87.70
16517;DHT22;8371;52.272;9.746;2023-12-28T05:49:37;12.30;87.80
16517;DHT22;8371;52.272;9.746;2023-12-28T05:52:03;12.30;88.00
16517;DHT22;8371;52.272;9.746;2023-12-28T05:54:29;12.30;87.70
16517;DHT22;8371;52.272;9.746;2023-12-28T05:56:55;12.30;87.80
16517;DHT22;8371;52.272;9.746;2023-12-28T05:59:21;12.30;87.80
16517;DHT22;8371;52.272;9.746;2023-12-28T06:01:47;12.30;87.80
16517;DHT22;8371;52.272;9.746;2023-12-28T06:04:13;12.30;87.80
16517;DHT22;8371;52.272;9.746;2023-12-28T06:06:39;12.40;87.80
16517;DHT22;8371;52.272;9.746;2023-12-28T06:09:04;12.40;87.80
16517;DHT22;8371;52.272;9.746;2023-12-28T06:11:30;12.40;87.70
16517;DHT22;8371;52.272;9.746;2023-12-28T06:13:56;12.40;87.70
16517;DHT22;8371;52.272;9.746;2023-12-28T06:16:22;12.40;87.70
16517;DHT22;8371;52.272;9.746;2023-12-28T06:18:48;12.50;87.70
16517;DHT22;8371;52.272;9.746;2023-12-28T06:21:14;12.50;87.60
16517;DHT22;8371;52.272;9.746;2023-12-28T06:23:40;12.60;87.80
16517;DHT22;8371;52.272;9.746;2023-12-28T06:26:05;12.60;87.50
16517;DHT22;8371;52.272;9.746;2023-12-28T06:28:32;12.60;87.60
16517;DHT22;8371;52.272;9.746;2023-12-28T06:31:06;12.70;86.90
16517;DHT22;8371;52.272;9.746;2023-12-28T06:33:32;12.70;87.00
16517;DHT22;8371;52.272;9.746;2023-12-28T06:35:57;12.70;86.90
16517;DHT22;8371;52.272;9.746;2023-12-28T06:38:24;12.70;86.50
16517;DHT22;8371;52.272;9.746;2023-12-28T06:40:51;12.60;86.40
16517;DHT22;8371;52.272;9.746;2023-12-28T06:43:17;12.60;86.30
16517;DHT22;8371;52.272;9.746;2023-12-28T06:45:42;12.60;86.40
16517;DHT22;8371;52.272;9.746;2023-12-28T06:48:08;12.60;86.40
16517;DHT22;8371;52.272;9.746;2023-12-28T06:50:34;12.60;86.10
16517;DHT22;8371;52.272;9.746;2023-12-28T06:52:59;12.60;86.40
16517;DHT22;8371;52.272;9.746;2023-12-28T06:55:25;12.60;86.20
16517;DHT22;8371;52.272;9.746;2023-12-28T06:57:51;12.60;86.40
16517;DHT22;8371;52.272;9.746;2023-12-28T07:00:17;12.60;86.20
16517;DHT22;8371;52.272;9.746;2023-12-28T07:02:42;12.50;86.00
16517;DHT22;8371;52.272;9.746;2023-12-28T07:05:08;12.50;86.10
16517;DHT22;8371;52.272;9.746;2023-12-28T07:07:34;12.50;86.00
16517;DHT22;8371;52.272;9.746;2023-12-28T07:09:59;12.50;86.00
16517;DHT22;8371;52.272;9.746;2023-12-28T07:12:25;12.40;85.80
16517;DHT22;8371;52.272;9.746;2023-12-28T07:14:51;12.40;86.00
16517;DHT22;8371;52.272;9.746;2023-12-28T07:17:17;12.40;86.00
16517;DHT22;8371;52.272;9.746;2023-12-28T07:19:43;12.40;85.70
16517;DHT22;8371;52.272;9.746;2023-12-28T07:22:09;12.40;85.80
16517;DHT22;8371;52.272;9.746;2023-12-28T07:24:35;12.40;86.10
16517;DHT22;8371;52.272;9.746;2023-12-28T07:27:00;12.40;85.70
16517;DHT22;8371;52.272;9.746;2023-12-28T07:29:26;12.40;85.70
16517;DHT22;8371;52.272;9.746;2023-12-28T07:31:53;12.30;85.50
16517;DHT22;8371;52.272;9.746;2023-12-28T07:34:19;12.30;85.60
16517;DHT22;8371;52.272;9.746;2023-12-28T07:36:45;12.30;85.70
16517;DHT22;8371;52.272;9.746;2023-12-28T07:39:10;12.30;85.80
16517;DHT22;8371;52.272;9.746;2023-12-28T07:41:36;12.30;86.00
16517;DHT22;8371;52.272;9.746;2023-12-28T07:44:02;12.30;85.90
16517;DHT22;8371;52.272;9.746;2023-12-28T07:46:28;12.30;85.70
16517;DHT22;8371;52.272;9.746;2023-12-28T07:48:53;12.30;85.80
16517;DHT22;8371;52.272;9.746;2023-12-28T07:51:19;12.30;85.80
16517;DHT22;8371;52.272;9.746;2023-12-28T07:53:45;12.30;85.70
16517;DHT22;8371;52.272;9.746;2023-12-28T07:56:10;12.30;85.60
16517;DHT22;8371;52.272;9.746;2023-12-28T07:58:36;12.30;85.60
16517;DHT22;8371;52.272;9.746;2023-12-28T08:01:03;12.30;85.60
16517;DHT22;8371;52.272;9.746;2023-12-28T08:03:28;12.30;85.60
16517;DHT22;8371;52.272;9.746;2023-12-28T08:05:54;12.30;85.60
16517;DHT22;8371;52.272;9.746;2023-12-28T08:08:20;12.20;85.30
16517;DHT22;8371;52.272;9.746;2023-12-28T08:10:46;12.30;85.70
16517;DHT22;8371;52.272;9.746;2023-12-28T08:13:12;12.20;85.70
16517;DHT22;8371;52.272;9.746;2023-12-28T08:15:37;12.30;85.80
16517;DHT22;8371;52.272;9.746;2023-12-28T08:18:03;12.30;86.20
16517;DHT22;8371;52.272;9.746;2023-12-28T08:20:29;12.30;85.70
16517;DHT22;8371;52.272;9.746;2023-12-28T08:22:55;12.30;86.40
16517;DHT22;8371;52.272;9.746;2023-12-28T08:25:21;12.30;85.60
16517;DHT22;8371;52.272;9.746;2023-12-28T08:27:48;12.30;85.60
16517;DHT22;8371;52.272;9.746;2023-12-28T08:30:14;12.40;85.70
16517;DHT22;8371;52.272;9.746;2023-12-28T08:32:39;12.40;85.60
16517;DHT22;8371;52.272;9.746;2023-12-28T08:35:05;12.40;85.50
16517;DHT22;8371;52.272;9.746;2023-12-28T08:37:33;12.50;85.60
16517;DHT22;8371;52.272;9.746;2023-12-28T08:39:58;12.50;85.20
16517;DHT22;8371;52.272;9.746;2023-12-28T08:42:24;12.50;85.50
16517;DHT22;8371;52.272;9.746;2023-12-28T08:44:50;12.60;85.40
16517;DHT22;8371;52.272;9.746;2023-12-28T08:47:15;12.60;85.40
16517;DHT22;8371;52.272;9.746;2023-12-28T08:49:41;12.70;85.40
16517;DHT22;8371;52.272;9.746;2023-12-28T08:52:07;12.70;85.20
16517;DHT22;8371;52.272;9.746;2023-12-28T08:54:33;12.70;85.20
16517;DHT22;8371;52.272;9.746;2023-12-28T08:56:58;12.80;84.90
16517;DHT22;8371;52.272;9.746;2023-12-28T08:59:24;12.80;84.80
16517;DHT22;8371;52.272;9.746;2023-12-28T09:01:55;12.80;85.00
16517;DHT22;8371;52.272;9.746;2023-12-28T09:04:21;12.90;85.00
16517;DHT22;8371;52.272;9.746;2023-12-28T09:06:46;12.90;84.70
16517;DHT22;8371;52.272;9.746;2023-12-28T09:09:12;12.90;84.50
16517;DHT22;8371;52.272;9.746;2023-12-28T09:11:39;13.00;84.50
16517;DHT22;8371;52.272;9.746;2023-12-28T09:14:04;13.00;84.50
16517;DHT22;8371;52.272;9.746;2023-12-28T09:16:30;13.00;84.60
16517;DHT22;8371;52.272;9.746;2023-12-28T09:18:56;13.10;84.40
16517;DHT22;8371;52.272;9.746;2023-12-28T09:21:22;13.10;84.10
16517;DHT22;8371;52.272;9.746;2023-12-28T09:23:48;13.20;84.40
16517;DHT22;8371;52.272;9.746;2023-12-28T09:26:13;13.20;84.40
16517;DHT22;8371;52.272;9.746;2023-12-28T09:28:39;13.20;83.50
16517;DHT22;8371;52.272;9.746;2023-12-28T09:31:06;13.20;84.10
16517;DHT22;8371;52.272;9.746;2023-12-28T09:33:32;13.30;84.10
16517;DHT22;8371;52.272;9.746;2023-12-28T09:35:58;13.40;83.80
16517;DHT22;8371;52.272;9.746;2023-12-28T09:38:25;13.40;83.80
16517;DHT22;8371;52.272;9.746;2023-12-28T09:40:53;13.40;83.90
16517;DHT22;8371;52.272;9.746;2023-12-28T09:43:30;13.50;84.10
16517;DHT22;8371;52.272;9.746;2023-12-28T09:45:55;13.50;83.60
16517;DHT22;8371;52.272;9.746;2023-12-28T09:48:21;13.50;83.30
16517;DHT22;8371;52.272;9.746;2023-12-28T09:50:52;13.60;83.00
16517;DHT22;8371;52.272;9.746;2023-12-28T09:53:24;13.60;83.30
16517;DHT22;8371;52.272;9.746;2023-12-28T09:55:50;13.70;83.40
16517;DHT22;8371;52.272;9.746;2023-12-28T09:58:20;13.70;83.00
16517;DHT22;8371;52.272;9.746;2023-12-28T10:00:48;13.70;82.90
16517;DHT22;8371;52.272;9.746;2023-12-28T10:03:15;13.70;82.60
16517;DHT22;8371;52.272;9.746;2023-12-28T10:05:41;13.80;82.50
16517;DHT22;8371;52.272;9.746;2023-12-28T10:08:08;13.80;82.30
16517;DHT22;8371;52.272;9.746;2023-12-28T10:10:34;13.90;82.60
16517;DHT22;8371;52.272;9.746;2023-12-28T10:13:00;13.90;82.10
16517;DHT22;8371;52.272;9.746;2023-12-28T10:15:26;13.90;82.50
16517;DHT22;8371;52.272;9.746;2023-12-28T10:17:52;14.00;82.50
16517;DHT22;8371;52.272;9.746;2023-12-28T10:20:18;14.00;81.60
16517;DHT22;8371;52.272;9.746;2023-12-28T10:22:43;14.00;82.40
16517;DHT22;8371;52.272;9.746;2023-12-28T10:25:10;14.10;82.00
16517;DHT22;8371;52.272;9.746;2023-12-28T10:27:39;14.10;81.30
16517;DHT22;8371;52.272;9.746;2023-12-28T10:30:08;14.10;82.00
16517;DHT22;8371;52.272;9.746;2023-12-28T10:32:39;14.20;82.00
16517;DHT22;8371;52.272;9.746;2023-12-28T10:35:04;14.20;82.10
16517;DHT22;8371;52.272;9.746;2023-12-28T10:37:31;14.30;82.20
16517;DHT22;8371;52.272;9.746;2023-12-28T10:39:59;14.40;82.00
16517;DHT22;8371;52.272;9.746;2023-12-28T10:42:32;14.40;81.90
16517;DHT22;8371;52.272;9.746;2023-12-28T10:45:04;14.50;81.80
16517;DHT22;8371;52.272;9.746;2023-12-28T10:47:37;14.60;81.90
16517;DHT22;8371;52.272;9.746;2023-12-28T10:50:04;14.60;81.40
16517;DHT22;8371;52.272;9.746;2023-12-28T10:52:32;14.70;80.50
16517;DHT22;8371;52.272;9.746;2023-12-28T10:55:33;14.80;81.00
16517;DHT22;8371;52.272;9.746;2023-12-28T10:58:13;14.80;81.40
16517;DHT22;8371;52.272;9.746;2023-12-28T11:00:41;14.90;80.90
16517;DHT22;8371;52.272;9.746;2023-12-28T11:03:10;15.00;80.80
16517;DHT22;8371;52.272;9.746;2023-12-28T11:05:39;15.00;80.60
16517;DHT22;8371;52.272;9.746;2023-12-28T11:08:06;15.00;80.60
16517;DHT22;8371;52.272;9.746;2023-12-28T11:10:33;15.10;80.50
16517;DHT22;8371;52.272;9.746;2023-12-28T11:13:00;15.10;80.10
16517;DHT22;8371;52.272;9.746;2023-12-28T11:15:26;15.10;80.10
16517;DHT22;8371;52.272;9.746;2023-12-28T11:17:52;15.20;80.40
16517;DHT22;8371;52.272;9.746;2023-12-28T11:20:19;15.20;80.10
16517;DHT22;8371;52.272;9.746;2023-12-28T11:22:45;15.20;80.10
16517;DHT22;8371;52.272;9.746;2023-12-28T11:25:15;15.20;80.00
16517;DHT22;8371;52.272;9.746;2023-12-28T11:27:41;15.30;80.00
16517;DHT22;8371;52.272;9.746;2023-12-28T11:30:09;15.20;79.30
16517;DHT22;8371;52.272;9.746;2023-12-28T11:32:36;15.30;79.40
16517;DHT22;8371;52.272;9.746;2023-12-28T11:35:02;15.10;78.60
16517;DHT22;8371;52.272;9.746;2023-12-28T11:37:30;15.20;78.40
16517;DHT22;8371;52.272;9.746;2023-12-28T11:39:57;15.20;78.80
16517;DHT22;8371;52.272;9.746;2023-12-28T11:42:25;15.20;78.90
16517;DHT22;8371;52.272;9.746;2023-12-28T11:44:55;15.20;79.30
16517;DHT22;8371;52.272;9.746;2023-12-28T11:47:25;15.20;79.30
16517;DHT22;8371;52.272;9.746;2023-12-28T11:49:52;15.10;79.20
16517;DHT22;8371;52.272;9.746;2023-12-28T11:52:31;15.10;78.50
16517;DHT22;8371;52.272;9.746;2023-12-28T11:54:58;15.10;78.60
16517;DHT22;8371;52.272;9.746;2023-12-28T11:57:25;15.10;78.60
16517;DHT22;8371;52.272;9.746;2023-12-28T11:59:56;15.10;78.50
16517;DHT22;8371;52.272;9.746;2023-12-28T12:02:22;15.00;78.00
16517;DHT22;8371;52.272;9.746;2023-12-28T12:04:49;15.00;79.10
16517;DHT22;8371;52.272;9.746;2023-12-28T12:07:15;15.00;78.80
16517;DHT22;8371;52.272;9.746;2023-12-28T12:09:42;14.90;78.70
16517;DHT22;8371;52.272;9.746;2023-12-28T12:12:08;14.90;78.80
16517;DHT22;8371;52.272;9.746;2023-12-28T12:14:35;15.00;78.60
16517;DHT22;8371;52.272;9.746;2023-12-28T12:17:01;15.00;78.60
16517;DHT22;8371;52.272;9.746;2023-12-28T12:19:27;15.00;78.70
16517;DHT22;8371;52.272;9.746;2023-12-28T12:21:54;15.00;79.30
16517;DHT22;8371;52.272;9.746;2023-12-28T12:24:21;15.00;77.80
16517;DHT22;8371;52.272;9.746;2023-12-28T12:26:51;15.00;78.40
16517;DHT22;8371;52.272;9.746;2023-12-28T12:29:16;15.00;78.30
16517;DHT22;8371;52.272;9.746;2023-12-28T12:31:43;15.10;78.50
16517;DHT22;8371;52.272;9.746;2023-12-28T12:34:16;15.10;78.20
16517;DHT22;8371;52.272;9.746;2023-12-28T12:36:45;15.10;78.20
16517;DHT22;8371;52.272;9.746;2023-12-28T12:39:11;15.10;78.00
16517;DHT22;8371;52.272;9.746;2023-12-28T12:41:39;15.10;77.60
16517;DHT22;8371;52.272;9.746;2023-12-28T12:44:05;15.10;77.00
16517;DHT22;8371;52.272;9.746;2023-12-28T12:46:31;15.10;76.90
16517;DHT22;8371;52.272;9.746;2023-12-28T12:48:58;15.20;76.90
16517;DHT22;8371;52.272;9.746;2023-12-28T12:51:25;15.00;77.20
16517;DHT22;8371;52.272;9.746;2023-12-28T12:54:00;15.00;77.00
16517;DHT22;8371;52.272;9.746;2023-12-28T12:56:23;15.00;77.10
16517;DHT22;8371;52.272;9.746;2023-12-28T12:58:49;15.00;77.20
16517;DHT22;8371;52.272;9.746;2023-12-28T13:01:15;14.90;76.80
16517;DHT22;8371;52.272;9.746;2023-12-28T13:03:41;14.90;77.20
16517;DHT22;8371;52.272;9.746;2023-12-28T13:06:06;14.90;77.20
16517;DHT22;8371;52.272;9.746;2023-12-28T13:08:33;14.90;77.30
16517;DHT22;8371;52.272;9.746;2023-12-28T13:10:59;14.80;76.80
16517;DHT22;8371;52.272;9.746;2023-12-28T13:13:24;14.80;77.30
16517;DHT22;8371;52.272;9.746;2023-12-28T13:15:50;14.80;76.50
16517;DHT22;8371;52.272;9.746;2023-12-28T13:18:16;14.80;76.60
16517;DHT22;8371;52.272;9.746;2023-12-28T13:20:42;14.80;76.80
16517;DHT22;8371;52.272;9.746;2023-12-28T13:23:08;14.80;76.40
16517;DHT22;8371;52.272;9.746;2023-12-28T13:25:34;14.70;76.90
16517;DHT22;8371;52.272;9.746;2023-12-28T13:28:00;14.70;76.70
16517;DHT22;8371;52.272;9.746;2023-12-28T13:30:25;14.70;76.60
16517;DHT22;8371;52.272;9.746;2023-12-28T13:32:53;14.70;76.60
16517;DHT22;8371;52.272;9.746;2023-12-28T13:35:19;14.70;76.40
16517;DHT22;8371;52.272;9.746;2023-12-28T13:37:44;14.70;76.70
16517;DHT22;8371;52.272;9.746;2023-12-28T13:40:11;14.70;76.70
16517;DHT22;8371;52.272;9.746;2023-12-28T13:42:37;14.60;76.50
16517;DHT22;8371;52.272;9.746;2023-12-28T13:45:03;14.70;76.40
16517;DHT22;8371;52.272;9.746;2023-12-28T13:47:29;14.60;76.30
16517;DHT22;8371;52.272;9.746;2023-12-28T13:49:55;14.60;76.10
16517;DHT22;8371;52.272;9.746;2023-12-28T13:52:21;14.50;76.30
16517;DHT22;8371;52.272;9.746;2023-12-28T13:54:46;14.50;76.00
16517;DHT22;8371;52.272;9.746;2023-12-28T13:57:12;14.50;76.50
16517;DHT22;8371;52.272;9.746;2023-12-28T13:59:38;14.50;77.10
16517;DHT22;8371;52.272;9.746;2023-12-28T14:02:03;14.50;76.00
16517;DHT22;8371;52.272;9.746;2023-12-28T14:04:29;14.40;75.60
16517;DHT22;8371;52.272;9.746;2023-12-28T14:06:55;14.40;75.90
16517;DHT22;8371;52.272;9.746;2023-12-28T14:09:21;14.40;76.20
16517;DHT22;8371;52.272;9.746;2023-12-28T14:11:47;14.30;76.00
16517;DHT22;8371;52.272;9.746;2023-12-28T14:14:13;14.30;76.00
16517;DHT22;8371;52.272;9.746;2023-12-28T14:16:39;14.30;75.80
16517;DHT22;8371;52.272;9.746;2023-12-28T14:19:05;14.20;76.00
16517;DHT22;8371;52.272;9.746;2023-12-28T14:21:37;14.20;76.00
16517;DHT22;8371;52.272;9.746;2023-12-28T14:24:04;14.20;75.90
16517;DHT22;8371;52.272;9.746;2023-12-28T14:26:32;14.10;75.90
16517;DHT22;8371;52.272;9.746;2023-12-28T14:28:59;14.10;76.10
16517;DHT22;8371;52.272;9.746;2023-12-28T14:31:25;14.00;76.00
16517;DHT22;8371;52.272;9.746;2023-12-28T14:33:52;14.00;76.10
16517;DHT22;8371;52.272;9.746;2023-12-28T14:36:36;14.00;75.60
16517;DHT22;8371;52.272;9.746;2023-12-28T14:39:00;14.00;76.20
16517;DHT22;8371;52.272;9.746;2023-12-28T14:41:26;14.00;76.20
16517;DHT22;8371;52.272;9.746;2023-12-28T14:43:53;13.90;76.00
16517;DHT22;8371;52.272;9.746;2023-12-28T14:46:18;13.90;76.10
16517;DHT22;8371;52.272;9.746;2023-12-28T14:48:44;13.90;76.40
16517;DHT22;8371;52.272;9.746;2023-12-28T14:51:10;13.90;76.20
16517;DHT22;8371;52.272;9.746;2023-12-28T14:53:35;13.90;76.40
16517;DHT22;8371;52.272;9.746;2023-12-28T14:56:01;13.90;76.10
16517;DHT22;8371;52.272;9.746;2023-12-28T14:58:27;13.90;76.00
16517;DHT22;8371;52.272;9.746;2023-12-28T15:00:52;13.80;76.30
16517;DHT22;8371;52.272;9.746;2023-12-28T15:03:20;13.80;76.00
16517;DHT22;8371;52.272;9.746;2023-12-28T15:05:45;13.80;76.10
16517;DHT22;8371;52.272;9.746;2023-12-28T15:08:11;13.80;77.00
16517;DHT22;8371;52.272;9.746;2023-12-28T15:10:37;13.80;75.80
16517;DHT22;8371;52.272;9.746;2023-12-28T15:13:03;13.80;75.80
16517;DHT22;8371;52.272;9.746;2023-12-28T15:15:31;13.80;75.60
16517;DHT22;8371;52.272;9.746;2023-12-28T15:17:57;13.80;75.60
16517;DHT22;8371;52.272;9.746;2023-12-28T15:20:23;13.70;75.80
16517;DHT22;8371;52.272;9.746;2023-12-28T15:22:49;13.70;76.00
16517;DHT22;8371;52.272;9.746;2023-12-28T15:25:15;13.70;75.90
16517;DHT22;8371;52.272;9.746;2023-12-28T15:27:41;13.70;76.60
16517;DHT22;8371;52.272;9.746;2023-12-28T15:30:07;13.70;75.50
16517;DHT22;8371;52.272;9.746;2023-12-28T15:32:33;13.70;76.00
16517;DHT22;8371;52.272;9.746;2023-12-28T15:34:59;13.70;75.80
16517;DHT22;8371;52.272;9.746;2023-12-28T15:37:27;13.70;76.00
16517;DHT22;8371;52.272;9.746;2023-12-28T15:39:53;13.70;76.10